• Join FlightAware (Why Join?)
  • Login
  • US Flag 
09:26AM EDT


 

Airport Tracker/Info


-or-


 

Live Flight TrackerFlight Track Log ✈ FSR411 ✈ 07-Oct-2013 ✈ KCMI - KBCT

Flight Track Log - Related Links

Times and Time Zones

All times are in EDT time to prevent confusion due to time zone crossing. See the FSR411 flight status page for this flight to view local times or setup timezone preferences in your user account.

Time Position Orientation Groundspeed Altitude Reporting Facility
EDT Latitude Longitude Course Direction KTS MPH feet Rate Location/Type
08:34AM 40.0775 -88.2475 148° Southeast 244 281 41,000  Level Indianapolis Center
08:35AM 40.0100 -88.1931 148° Southeast 274 315 7,600 -15,180 Descending Indianapolis Center
08:37AM 39.9222 -88.1575 163° South 324 373 10,000 1,260 Climbing Indianapolis Center
08:38AM 39.8208 -88.1128 161° South 377 434 10,200 1,440 Climbing Indianapolis Center
08:39AM 39.7172 -88.0642 160° South 394 453 13,000 2,940 Climbing Indianapolis Center
08:40AM 39.6058 -88.0136 161° South 416 479 16,300 3,120 Climbing Indianapolis Center
08:41AM 39.4883 -87.9608 161° South 442 509 19,500 3,120 Climbing Indianapolis Center
08:42AM 39.3522 -87.8994 161° South 459 528 22,800 2,580 Climbing Indianapolis Center
08:43AM 39.2272 -87.8419 160° South 472 543 24,800 1,800 Climbing Indianapolis Center
08:44AM 39.0939 -87.7842 161° South 500 575 26,500 1,500 Climbing Indianapolis Center
08:45AM 38.9575 -87.7217 160° South 516 594 28,000 1,260 Climbing Indianapolis Center
08:46AM 38.8156 -87.6592 161° South 532 612 29,200 1,500 Climbing Indianapolis Center
08:47AM 38.6444 -87.5839 161° South 541 623 31,100 1,740 Climbing Indianapolis Center
08:48AM 38.5061 -87.5228 161° South 532 612 32,900 1,680 Climbing Indianapolis Center
08:49AM 38.3703 -87.4636 161° South 521 600 34,600 1,680 Climbing Indianapolis Center
08:50AM 38.2397 -87.4058 161° South 506 582 36,400 1,680 Climbing Indianapolis Center
08:51AM 38.1131 -87.3517 161° South 489 563 38,100 1,680 Climbing Indianapolis Center
08:52AM 37.9931 -87.2989 161° South 465 535 39,900 1,380 Climbing Indianapolis Center
08:53AM 37.8583 -87.2394 161° South 430 495 41,000 480 Climbing Indianapolis Center
08:54AM 37.7467 -87.1914 161° South 424 488 41,000  Level Indianapolis Center
08:55AM 37.6344 -87.1433 161° South 425 489 41,000  Level Indianapolis Center
08:56AM 37.5169 -87.0939 162° South 427 491 41,000  Level Indianapolis Center
08:57AM 37.4014 -87.0467 162° South 431 496 41,000  Level Indianapolis Center
08:58AM 37.2861 -86.9986 162° South 431 496 41,000  Level Indianapolis Center
08:59AM 37.1706 -86.9483 161° South 436 502 41,000  Level Indianapolis Center
09:00AM 37.0944 -86.9164 161° South 431 496 41,000  Level Memphis Center
09:01AM 36.9700 -86.8619 161° South 437 503 41,000  Level Memphis Center
09:02AM 36.8542 -86.8125 161° South 437 503 41,000  Level Memphis Center
09:03AM 36.7403 -86.7658 162° South 437 503 41,000  Level Memphis Center
09:04AM 36.6283 -86.7164 160° South 429 494 41,000  Level Memphis Center
09:05AM 36.5144 -86.6700 162° South 429 494 41,000  Level Memphis Center
09:06AM 36.4025 -86.6208 161° South 429 494 41,000  Level Memphis Center
09:07AM 36.2992 -86.5794 162° South 434 499 41,000  Level Memphis Center
09:08AM 36.1853 -86.5358 163° South 434 499 41,000  Level Memphis Center
09:09AM 36.0731 -86.4869 161° South 428 493 41,000  Level Memphis Center
09:10AM 35.9592 -86.4436 163° South 428 493 41,000  Level Memphis Center
09:12AM 35.6947 -86.3350 162° South 443 510 41,000  Level Atlanta Center
09:13AM 35.5831 -86.2911 162° South 430 495 41,000  Level Atlanta Center
09:14AM 35.4692 -86.2444 162° South 448 516 41,000  Level Atlanta Center
09:15AM 35.3508 -86.1981 162° South 432 497 41,000  Level Atlanta Center
09:16AM 35.2433 -86.1547 162° South 417 480 41,000  Level Atlanta Center
09:17AM 35.1478 -86.1167 162° South 412 474 41,000  Level Atlanta Center
09:18AM 35.0381 -86.0733 162° South 412 474 41,000  Level Atlanta Center
09:19AM 34.9303 -86.0275 161° South 412 474 41,000  Level Atlanta Center
09:20AM 34.8183 -85.9794 161° South 406 467 41,000  Level Atlanta Center
09:21AM 34.7083 -85.9364 162° South 406 467 41,000  Level Atlanta Center
09:22AM 34.6006 -85.8936 162° South 406 467 41,000  Level Atlanta Center
09:23AM 34.4928 -85.8508 162° South 406 467 41,000  Level Atlanta Center
09:24AM 34.4075 -85.8189 163° South 406 467 41,000  Level Atlanta Center
09:25AM 34.2789 -85.7733 164° South 394 453 41,000  Level Atlanta Center
09:26AM 34.1750 -85.7311 161° South 394 453 41,000  Level Atlanta Center
09:27AM 34.0711 -85.6914 162° South 394 453 41,000  Level Atlanta Center
09:28AM 33.9633 -85.6492 162° South 394 453 41,000  Level Atlanta Center
09:29AM 33.8553 -85.6072 162° South 399 459 41,000  Level Atlanta Center
09:30AM 33.7597 -85.5731 163° South 399 459 41,000  Level Atlanta Center
09:31AM 33.6536 -85.5311 162° South 399 459 41,000  Level Atlanta Center
09:32AM 33.5497 -85.4919 163° South 405 466 41,000  Level Atlanta Center
09:33AM 33.4378 -85.4478 162° South 400 460 41,000  Level Atlanta Center
09:34AM 33.3336 -85.4089 163° South 398 458 41,000  Level Atlanta Center
09:35AM 33.2236 -85.3647 161° South 403 464 41,000  Level Atlanta Center
09:36AM 33.1156 -85.3261 163° South 403 464 41,000  Level Atlanta Center
09:37AM 33.0114 -85.2825 161° South 408 470 41,000  Level Atlanta Center
09:38AM 32.8972 -85.2361 161° South 408 470 41,000  Level Atlanta Center
09:39AM 32.7869 -85.1953 163° South 408 470 41,000  Level Atlanta Center
09:40AM 32.6808 -85.1544 162° South 413 475 41,000  Level Atlanta Center
09:41AM 32.5603 -85.1083 162° South 413 475 41,000 180 Level Atlanta Center
09:42AM 32.4500 -85.0678 163° South 422 486 41,400 360 Climbing Atlanta Center
09:43AM 32.3356 -85.0247 162° South 422 486 41,800 420 Climbing Atlanta Center
09:44AM 32.2250 -84.9867 164° South 422 486 42,300 480 Climbing Atlanta Center
09:45AM 32.1128 -84.9461 163° South 417 480 42,800 300 Climbing Atlanta Center
09:46AM 32.0044 -84.9058 162° South 417 480 43,000 60 Climbing Atlanta Center
09:47AM 31.8900 -84.8631 162° South 423 487 43,000  Level Atlanta Center
09:49AM 31.6431 -84.7717 163° South 422 486 43,000  Level Jacksonville Center
09:50AM 31.5331 -84.7328 163° South 422 486 43,000  Level Jacksonville Center
09:51AM 31.4208 -84.6917 163° South 422 486 43,000  Level Jacksonville Center
09:52AM 31.3089 -84.6506 163° South 422 486 43,000  Level Jacksonville Center
09:53AM 31.1989 -84.5928 156° South 422 486 43,000  Level Jacksonville Center
09:54AM 31.0956 -84.5206 149° Southeast 428 493 43,000  Level Jacksonville Center
09:55AM 30.9900 -84.4483 150° Southeast 433 498 43,000  Level Jacksonville Center
09:56AM 30.8822 -84.3789 151° Southeast 438 504 43,000  Level Jacksonville Center
09:57AM 30.7722 -84.3069 151° Southeast 443 510 43,000  Level Jacksonville Center
09:58AM 30.6625 -84.2328 150° Southeast 443 510 43,000  Level Jacksonville Center
09:59AM 30.5525 -84.1614 151° Southeast 448 516 43,000  Level Jacksonville Center
10:00AM 30.4447 -84.0925 151° Southeast 448 516 43,000  Level Jacksonville Center
10:01AM 30.3325 -84.0189 150° Southeast 453 521 43,000  Level Jacksonville Center
10:02AM 30.2244 -83.9481 150° Southeast 453 521 43,000  Level Jacksonville Center
10:03AM 30.1144 -83.8794 152° Southeast 453 521 43,000  Level Jacksonville Center
10:04AM 30.0064 -83.8111 151° Southeast 453 521 43,000  Level Jacksonville Center
10:05AM 29.8964 -83.7383 150° Southeast 453 521 43,000  Level Jacksonville Center
10:06AM 29.7756 -83.6583 150° Southeast 459 528 43,000  Level Jacksonville Center
10:07AM 29.6656 -83.5881 151° Southeast 454 522 43,000  Level Jacksonville Center
10:08AM 29.5531 -83.5181 152° Southeast 454 522 43,000  Level Jacksonville Center
10:09AM 29.4447 -83.4483 151° Southeast 454 522 43,000  Level Jacksonville Center
10:10AM 29.3428 -83.3594 143° Southeast 461 531 43,000  Level Jacksonville Center
10:11AM 29.2828 -83.2258 117° Southeast 461 531 43,000  Level Jacksonville Center
10:12AM 29.2728 -83.0689 94° East 456 525 43,000  Level Jacksonville Center
10:13AM 29.2792 -82.9117 87° East 471 542 43,000  Level Jacksonville Center
10:14AM 29.2831 -82.7522 88° East 482 555 43,000  Level Jacksonville Center
10:15AM 29.2392 -82.6047 109° East 487 560 43,000  Level Jacksonville Center
10:16AM 29.1406 -82.5097 140° Southeast 441 507 43,000  Level Jacksonville Center
10:17AM 29.0217 -82.4650 162° South 434 499 43,000  Level Jacksonville Center
10:18AM 28.9067 -82.4133 159° South 426 490 43,000  Level Jacksonville Center
10:19AM 28.8311 -82.3072 129° Southeast 444 511 43,000  Level Jacksonville Center
10:20AM 28.7553 -82.1844 125° Southeast 456 525 43,000  Level Jacksonville Center
10:21AM 28.6772 -82.0572 125° Southeast 476 548 43,000  Level Jacksonville Center
10:23AM 28.5358 -81.8325 126° Southeast 493 567 43,000  Level Miami Center
10:24AM 28.4603 -81.7206 127° Southeast 493 567 43,000  Level Miami Center
10:25AM 28.3811 -81.5969 126° Southeast 493 567 43,000  Level Miami Center
10:26AM 28.3039 -81.4711 125° Southeast 493 567 43,000  Level Miami Center
10:27AM 28.2206 -81.3358 125° Southeast 487 560 43,000 -300 Level Miami Center
10:28AM 28.1428 -81.2125 126° Southeast 482 555 42,500 -960 Descending Miami Center
10:29AM 28.0808 -81.1183 127° Southeast 482 555 41,100 -1,680 Descending Miami Center
10:30AM 27.9953 -80.9836 126° Southeast 482 555 39,200 -1,860 Descending Miami Center
10:31AM 27.9172 -80.8608 126° Southeast 482 555 37,400 -1,800 Descending Miami Center
10:32AM 27.8369 -80.7431 128° Southeast 482 555 35,700 -1,680 Descending Miami Center
10:33AM 27.7589 -80.6231 126° Southeast 477 549 34,100 -1,380 Descending Miami Center
10:34AM 27.6847 -80.5033 125° Southeast 477 549 33,000 -1,260 Descending Miami Center
10:35AM 27.6147 -80.3769 122° Southeast 477 549 31,700 -1,560 Descending Miami Center
10:36AM 27.5508 -80.2486 119° Southeast 477 549 29,900 -1,740 Descending Miami Center
10:37AM 27.4850 -80.1203 120° Southeast 477 549 28,300 -1,620 Descending Miami Center
10:38AM 27.4228 -80.0014 121° Southeast 466 536 26,700 -1,800 Descending Miami Center
10:39AM 27.3589 -79.8711 119° Southeast 447 514 24,800 -1,980 Descending Miami Center
10:40AM 27.2836 -79.7781 132° Southeast 399 459 22,800 -2,100 Descending Miami Center
10:41AM 27.1819 -79.7356 160° South 392 451 20,700 -2,100 Descending Miami Center
10:42AM 27.0886 -79.7125 168° South 375 432 18,700 -1,980 Descending Miami Center
10:43AM 26.9908 -79.6797 163° South 376 433 16,800 -2,100 Descending Miami Center
10:44AM 26.9308 -79.6642 167° South 358 412 15,600 -2,100 Descending Miami Center
10:44AM 26.8872 -79.6492 163° South 365 420 14,700 -1,800 Descending Miami Center
10:45AM 26.8350 -79.6456 176° South 343 395 13,800 -1,380 Descending Miami Center
10:45AM 26.8139 -79.6544 201° Southwest 332 382 13,300 -1,500 Descending Miami Center
10:46AM 26.7550 -79.6833 204° Southwest 317 365 12,300 -1,740 Descending Miami Center
10:46AM 26.7192 -79.6986 201° Southwest 321 369 11,600 -1,560 Descending Miami Center
10:47AM 26.6706 -79.7231 204° Southwest 270 311 10,600 -1,440 Descending Miami Center
10:47AM 26.6581 -79.7275 198° South 289 333 10,200 -1,500 Descending Miami Center
10:48AM 26.6031 -79.7564 205° Southwest 268 308 9,100 -1,620 Descending Miami Center
10:48AM 26.5819 -79.7650 200° South 279 321 8,600 -1,200 Descending Miami Center
10:49AM 26.5378 -79.7872 204° Southwest 274 315 8,000 -600 Descending Miami Center
10:49AM 26.5189 -79.7939 198° South 279 321 8,000  Level Miami Center
10:50AM 26.4661 -79.8203 204° Southwest 277 319 8,000  Level Miami Center
10:50AM 26.4386 -79.8311 199° South 279 321 8,000  Level Miami Center
10:51AM 26.3817 -79.8600 204° Southwest 279 321 8,000  Level Miami Center
10:51AM 26.3775 -79.8644 224° Southwest 279 321 8,000 -900 Level Miami Center
10:52AM 26.3261 -79.9142 221° Southwest 258 297 7,100 -1,320 Descending Miami Center
10:52AM 26.3156 -79.9231 217° Southwest 279 321 6,700 -1,980 Descending Miami Center
10:53AM 26.2708 -79.9661 221° Southwest 258 297 5,100 -1,920 Descending Miami Center
10:53AM 26.2667 -79.9706 224° Southwest 267 307 4,800 -1,200 Descending Miami Center
10:54AM 26.2219 -80.0086 217° Southwest 239 275 4,000 -480 Descending Miami Center
10:55AM 26.1914 -79.9686 130° Southeast 231 266 4,000  Level Miami Center
10:56AM 26.1992 -79.8922 84° East 230 265 4,000  Level Miami Center
10:57AM 26.1858 -79.8294 103° East 201 231 4,000 -240 Level Miami Center
10:58AM 26.1425 -79.8031 151° Southeast 192 221 3,600 -540 Descending Miami Center
10:59AM 26.0989 -79.7994 176° South 164 189 3,000 -360 Descending Miami Center
11:00AM 26.0769 -79.8475 243° Southwest 166 191 3,000  Level Miami Center
11:01AM 26.0739 -79.8939 266° West 169 194 3,000  Level Miami Center
11:02AM 26.0728 -79.9469 269° West 172 198 3,000 -300 Level Miami Center
11:03AM 26.0739 -79.9978 271° West 166 191 2,500 -600 Descending Miami Center
11:04AM 26.0747 -80.0511 271° West 164 189 1,800 -780 Descending Miami Center
11:05AM 26.0739 -80.0950 269° West 131 151 1,000 -780 Descending Miami Center
11:06AM 26.0750 -80.1344 272° West 121 139 300 -720 Descending Miami Center
11:08AM 26.0931 -80.3224 276° West  Level FlightAware Approximate
11:15AM 26.0833 -80.2832 90° East  Level FlightAware Approximate
11:16AM 26.0682 -80.1577 103° East  Level FlightAware Approximate
11:17AM 26.0667 -80.1500 103° East  Level FlightAware Approximate
11:18AM 26.1803 -80.1346 103° East  Level Estimated
11:19AM 26.0667 -80.1500 103° East  Level FlightAware Approximate
11:20AM 26.1803 -80.1346 103° East  Level Estimated
11:21AM 26.0667 -80.1500 103° East  Level FlightAware Approximate
11:22AM 26.1803 -80.1346 103° East  Level Estimated
11:23AM 26.0667 -80.1500 103° East  Level FlightAware Approximate
11:24AM 26.1803 -80.1346 103° East  Level Estimated
11:25AM 26.0667 -80.1500 103° East  Level FlightAware Approximate
11:26AM 26.1803 -80.1346 103° East  Level Estimated
11:27AM 26.0667 -80.1500 103° East  Level FlightAware Approximate
11:28AM 26.1803 -80.1346 103° East  Level Estimated
11:29AM 26.0667 -80.1500 103° East  Level FlightAware Approximate